Language: 


Des rapports , des résumés tant et plus, au choix de chacun....


Données Historiques de Météogheer
Journalier Rapport pour Aoûut 21, 2019 Unitée:  Les deux    Impériale   Métrique
Suivant Jour »
Journalier Hebdomadaire Mensuel Annuel Sur mesure
  Max: Min: Moyenne:
Température: 78.8 °F /  26.0 °C 41.9 °F /  5.5 °C 61.3 °F /  16.3 °C
Point de rosée: 55.4 °F /  13.0 °C 37.4 °F /  3.0 °C 46.2 °F /  7.9 °C
Humidité: 88% 31% 61%
Vent: 6mph /  9.7km/h - 0.4mph /  0.7km/h
Rafales: 7.2mph /  11.6km/h - -
Vent- - SW
Pression: 30.3 in /  1026.0 hPa 30.2 in /  1022.0 hPa -
Pluie: 0 in /  0.0 mm    
Historical Graphs
 
 
Données tabulaires pour Aoûut 21, 2019
Heure Température Point de rosée Pression Vent Vent Rafales Humidité Pluie Taux (Horaire) Conditions
00:00 48 °F /  8.9 °C 41 °F /  5.0 °C 30.3in /  1025.0hPa Calm     72% 0in /  0.0mm
00:05 48 °F /  8.9 °C 41 °F /  5.0 °C 30.3in /  1025.0hPa Calm     74% 0in /  0.0mm
00:10 48 °F /  8.9 °C 41 °F /  5.0 °C 30.3in /  1025.0hPa Calm     74% 0in /  0.0mm
00:15 48 °F /  8.9 °C 41 °F /  5.0 °C 30.3in /  1025.0hPa Calm     76% 0in /  0.0mm
00:20 47.8 °F /  8.8 °C 41 °F /  5.0 °C 30.3in /  1025.0hPa Calm     76% 0in /  0.0mm
00:25 47.8 °F /  8.8 °C 41 °F /  5.0 °C 30.3in /  1025.0hPa Calm     76% 0in /  0.0mm
00:30 47.7 °F /  8.7 °C 41 °F /  5.0 °C 30.3in /  1025.0hPa Calm     76% 0in /  0.0mm
00:35 47.5 °F /  8.6 °C 41 °F /  5.0 °C 30.3in /  1025.0hPa Calm     76% 0in /  0.0mm
00:40 47.7 °F /  8.7 °C 41 °F /  5.0 °C 30.3in /  1025.0hPa Calm     78% 0in /  0.0mm
00:45 47.7 °F /  8.7 °C 41 °F /  5.0 °C 30.3in /  1025.0hPa Calm     78% 0in /  0.0mm
00:50 47.7 °F /  8.7 °C 42.8 °F /  6.0 °C 30.3in /  1025.0hPa Calm     79% 0in /  0.0mm
00:55 47.7 °F /  8.7 °C 42.8 °F /  6.0 °C 30.3in /  1025.0hPa Calm     79% 0in /  0.0mm
01:00 47.7 °F /  8.7 °C 42.8 °F /  6.0 °C 30.3in /  1025.0hPa Calm     79% 0in /  0.0mm
01:05 47.5 °F /  8.6 °C 42.8 °F /  6.0 °C 30.3in /  1025.0hPa Calm     79% 0in /  0.0mm
01:10 47.5 °F /  8.6 °C 42.8 °F /  6.0 °C 30.3in /  1025.0hPa Calm     80% 0in /  0.0mm
01:15 47.5 °F /  8.6 °C 42.8 °F /  6.0 °C 30.3in /  1025.0hPa Calm     80% 0in /  0.0mm
01:20 47.3 °F /  8.5 °C 42.8 °F /  6.0 °C 30.3in /  1025.0hPa Calm     80% 0in /  0.0mm
01:25 47.1 °F /  8.4 °C 42.8 °F /  6.0 °C 30.3in /  1025.0hPa Calm     80% 0in /  0.0mm
01:30 46.9 °F /  8.3 °C 42.8 °F /  6.0 °C 30.3in /  1025.0hPa Calm     80% 0in /  0.0mm
01:35 46.9 °F /  8.3 °C 42.8 °F /  6.0 °C 30.3in /  1025.0hPa Calm     80% 0in /  0.0mm
01:40 46.8 °F /  8.2 °C 41 °F /  5.0 °C 30.3in /  1025.0hPa Calm     80% 0in /  0.0mm
01:45 46.6 °F /  8.1 °C 41 °F /  5.0 °C 30.3in /  1025.0hPa Calm     80% 0in /  0.0mm
01:50 46.8 °F /  8.2 °C 41 °F /  5.0 °C 30.3in /  1025.0hPa Calm     80% 0in /  0.0mm
01:55 46.8 °F /  8.2 °C 41 °F /  5.0 °C 30.3in /  1025.0hPa Calm     80% 0in /  0.0mm
02:00 46.6 °F /  8.1 °C 41 °F /  5.0 °C 30.3in /  1025.0hPa Calm     80% 0in /  0.0mm
02:05 46.4 °F /  8.0 °C 41 °F /  5.0 °C 30.3in /  1025.0hPa Calm     80% 0in /  0.0mm
02:10 46.6 °F /  8.1 °C 41 °F /  5.0 °C 30.3in /  1025.0hPa Calm     81% 0in /  0.0mm
02:15 46 °F /  7.8 °C 41 °F /  5.0 °C 30.3in /  1025.0hPa Calm     80% 0in /  0.0mm
02:20 45.9 °F /  7.7 °C 41 °F /  5.0 °C 30.3in /  1025.0hPa Calm     80% 0in /  0.0mm
02:25 45.7 °F /  7.6 °C 41 °F /  5.0 °C 30.3in /  1025.0hPa Calm     80% 0in /  0.0mm
02:30 45.5 °F /  7.5 °C 41 °F /  5.0 °C 30.3in /  1025.0hPa Calm     80% 0in /  0.0mm
02:35 45.3 °F /  7.4 °C 39.2 °F /  4.0 °C 30.3in /  1025.0hPa Calm     80% 0in /  0.0mm
02:40 45.3 °F /  7.4 °C 39.2 °F /  4.0 °C 30.3in /  1025.0hPa Calm     80% 0in /  0.0mm
02:45 45.3 °F /  7.4 °C 39.2 °F /  4.0 °C 30.3in /  1025.0hPa Calm     81% 0in /  0.0mm
02:50 45.5 °F /  7.5 °C 41 °F /  5.0 °C 30.3in /  1025.0hPa Calm     81% 0in /  0.0mm
02:55 45.5 °F /  7.5 °C 41 °F /  5.0 °C 30.3in /  1025.0hPa Calm     81% 0in /  0.0mm
03:00 45.5 °F /  7.5 °C 41 °F /  5.0 °C 30.3in /  1025.0hPa Calm     81% 0in /  0.0mm
03:05 45.5 °F /  7.5 °C 41 °F /  5.0 °C 30.3in /  1025.0hPa Calm     82% 0in /  0.0mm
03:10 45.3 °F /  7.4 °C 39.2 °F /  4.0 °C 30.3in /  1025.0hPa Calm     81% 0in /  0.0mm
03:15 45.1 °F /  7.3 °C 39.2 °F /  4.0 °C 30.3in /  1025.0hPa Calm     81% 0in /  0.0mm
03:20 45 °F /  7.2 °C 39.2 °F /  4.0 °C 30.3in /  1025.0hPa Calm     81% 0in /  0.0mm
03:25 45 °F /  7.2 °C 39.2 °F /  4.0 °C 30.3in /  1025.0hPa Calm     81% 0in /  0.0mm
03:30 45.3 °F /  7.4 °C 41 °F /  5.0 °C 30.3in /  1025.0hPa Calm     82% 0in /  0.0mm
03:35 45.1 °F /  7.3 °C 41 °F /  5.0 °C 30.3in /  1025.0hPa Calm     82% 0in /  0.0mm
03:40 45.3 °F /  7.4 °C 41 °F /  5.0 °C 30.3in /  1025.0hPa Calm     82% 0in /  0.0mm
03:45 45.5 °F /  7.5 °C 41 °F /  5.0 °C 30.3in /  1025.0hPa Calm     82% 0in /  0.0mm
03:50 45.9 °F /  7.7 °C 41 °F /  5.0 °C 30.3in /  1025.0hPa Calm     82% 0in /  0.0mm
03:55 46.4 °F /  8.0 °C 42.8 °F /  6.0 °C 30.3in /  1025.0hPa Calm     83% 0in /  0.0mm
04:00 46.2 °F /  7.9 °C 41 °F /  5.0 °C 30.3in /  1025.0hPa Calm     83% 0in /  0.0mm
04:05 46.4 °F /  8.0 °C 42.8 °F /  6.0 °C 30.3in /  1025.0hPa Calm     83% 0in /  0.0mm
04:10 46.2 °F /  7.9 °C 41 °F /  5.0 °C 30.3in /  1025.0hPa Calm     83% 0in /  0.0mm
04:15 46 °F /  7.8 °C 41 °F /  5.0 °C 30.3in /  1025.0hPa Calm     83% 0in /  0.0mm
04:20 45.9 °F /  7.7 °C 41 °F /  5.0 °C 30.3in /  1025.0hPa Calm     83% 0in /  0.0mm
04:25 45.5 °F /  7.5 °C 41 °F /  5.0 °C 30.3in /  1025.0hPa Calm     83% 0in /  0.0mm
04:30 45.1 °F /  7.3 °C 41 °F /  5.0 °C 30.3in /  1025.0hPa Calm     83% 0in /  0.0mm
04:35 44.8 °F /  7.1 °C 39.2 °F /  4.0 °C 30.3in /  1025.0hPa Calm     83% 0in /  0.0mm
04:40 44.6 °F /  7.0 °C 39.2 °F /  4.0 °C 30.3in /  1025.0hPa Calm     82% 0in /  0.0mm
04:45 44.4 °F /  6.9 °C 39.2 °F /  4.0 °C 30.3in /  1025.0hPa Calm     82% 0in /  0.0mm
04:50 44.8 °F /  7.1 °C 39.2 °F /  4.0 °C 30.3in /  1025.0hPa Calm     83% 0in /  0.0mm
04:55 45.1 °F /  7.3 °C 41 °F /  5.0 °C 30.3in /  1025.0hPa Calm     83% 0in /  0.0mm
05:00 45.3 °F /  7.4 °C 41 °F /  5.0 °C 30.3in /  1025.0hPa Calm     83% 0in /  0.0mm
05:05 45.5 °F /  7.5 °C 41 °F /  5.0 °C 30.3in /  1025.0hPa Calm     83% 0in /  0.0mm
05:10 45.7 °F /  7.6 °C 41 °F /  5.0 °C 30.3in /  1025.0hPa Calm     83% 0in /  0.0mm
05:15 45.5 °F /  7.5 °C 41 °F /  5.0 °C 30.3in /  1025.0hPa Calm     84% 0in /  0.0mm
05:20 45.1 °F /  7.3 °C 41 °F /  5.0 °C 30.3in /  1025.0hPa Calm     83% 0in /  0.0mm
05:25 45.1 °F /  7.3 °C 41 °F /  5.0 °C 30.3in /  1025.0hPa Calm     83% 0in /  0.0mm
05:30 45 °F /  7.2 °C 41 °F /  5.0 °C 30.3in /  1025.0hPa Calm     83% 0in /  0.0mm
05:35 44.8 °F /  7.1 °C 39.2 °F /  4.0 °C 30.3in /  1025.0hPa Calm     83% 0in /  0.0mm
05:40 44.8 °F /  7.1 °C 41 °F /  5.0 °C 30.3in /  1025.0hPa Calm     84% 0in /  0.0mm
05:45 44.6 °F /  7.0 °C 41 °F /  5.0 °C 30.3in /  1025.0hPa Calm     84% 0in /  0.0mm
05:50 44.2 °F /  6.8 °C 39.2 °F /  4.0 °C 30.3in /  1025.0hPa Calm     83% 0in /  0.0mm
05:55 44.2 °F /  6.8 °C 39.2 °F /  4.0 °C 30.3in /  1025.0hPa Calm     83% 0in /  0.0mm
06:00 44.1 °F /  6.7 °C 39.2 °F /  4.0 °C 30.3in /  1025.0hPa Calm     83% 0in /  0.0mm
06:05 43.7 °F /  6.5 °C 39.2 °F /  4.0 °C 30.3in /  1025.0hPa Calm     83% 0in /  0.0mm
06:10 43.5 °F /  6.4 °C 39.2 °F /  4.0 °C 30.3in /  1025.0hPa Calm     83% 0in /  0.0mm
06:15 43.7 °F /  6.5 °C 39.2 °F /  4.0 °C 30.3in /  1025.0hPa Calm     84% 0in /  0.0mm
06:20 43.3 °F /  6.3 °C 39.2 °F /  4.0 °C 30.3in /  1025.0hPa Calm     83% 0in /  0.0mm
06:25 43 °F /  6.1 °C 37.4 °F /  3.0 °C 30.3in /  1025.0hPa Calm     83% 0in /  0.0mm
06:30 42.8 °F /  6.0 °C 37.4 °F /  3.0 °C 30.3in /  1025.0hPa Calm     83% 0in /  0.0mm
06:35 42.6 °F /  5.9 °C 37.4 °F /  3.0 °C 30.3in /  1025.0hPa Calm     83% 0in /  0.0mm
06:40 42.4 °F /  5.8 °C 37.4 °F /  3.0 °C 30.3in /  1025.0hPa Calm     83% 0in /  0.0mm
06:45 42.1 °F /  5.6 °C 37.4 °F /  3.0 °C 30.3in /  1025.0hPa Calm     83% 0in /  0.0mm
06:50 41.9 °F /  5.5 °C 37.4 °F /  3.0 °C 30.3in /  1025.0hPa Calm     83% 0in /  0.0mm
06:55 41.9 °F /  5.5 °C 37.4 °F /  3.0 °C 30.3in /  1025.0hPa Calm     83% 0in /  0.0mm
07:00 42.1 °F /  5.6 °C 37.4 °F /  3.0 °C 30.3in /  1025.0hPa Calm     83% 0in /  0.0mm
07:05 42.1 °F /  5.6 °C 37.4 °F /  3.0 °C 30.3in /  1025.0hPa Calm     83% 0in /  0.0mm
07:10 42.3 °F /  5.7 °C 37.4 °F /  3.0 °C 30.3in /  1025.0hPa Calm     84% 0in /  0.0mm
07:15 42.4 °F /  5.8 °C 39.2 °F /  4.0 °C 30.3in /  1025.0hPa Calm     84% 0in /  0.0mm
07:20 42.6 °F /  5.9 °C 39.2 °F /  4.0 °C 30.3in /  1025.0hPa Calm     84% 0in /  0.0mm
07:25 43 °F /  6.1 °C 39.2 °F /  4.0 °C 30.2in /  1024.0hPa Calm     84% 0in /  0.0mm
07:30 43.7 °F /  6.5 °C 41 °F /  5.0 °C 30.2in /  1024.0hPa Calm     86% 0in /  0.0mm
07:35 44.4 °F /  6.9 °C 41 °F /  5.0 °C 30.2in /  1024.0hPa Calm     86% 0in /  0.0mm
07:40 45.5 °F /  7.5 °C 42.8 °F /  6.0 °C 30.3in /  1025.0hPa Calm     87% 0in /  0.0mm
07:45 46.9 °F /  8.3 °C 44.6 °F /  7.0 °C 30.3in /  1025.0hPa Calm     88% 0in /  0.0mm
07:50 47.7 °F /  8.7 °C 44.6 °F /  7.0 °C 30.3in /  1025.0hPa Calm     88% 0in /  0.0mm
07:55 48.7 °F /  9.3 °C 46.4 °F /  8.0 °C 30.3in /  1025.0hPa Calm     88% 0in /  0.0mm
08:00 49.8 °F /  9.9 °C 46.4 °F /  8.0 °C 30.3in /  1025.0hPa Calm     88% 0in /  0.0mm
08:05 50.9 °F /  10.5 °C 48.2 °F /  9.0 °C 30.3in /  1025.0hPa Calm     88% 0in /  0.0mm
08:10 51.8 °F /  11.0 °C 48.2 °F /  9.0 °C 30.3in /  1025.0hPa Calm     87% 0in /  0.0mm
08:15 52.7 °F /  11.5 °C 50 °F /  10.0 °C 30.3in /  1025.0hPa Calm     87% 0in /  0.0mm
08:20 52.7 °F /  11.5 °C 50 °F /  10.0 °C 30.3in /  1025.0hPa West 0.9mph /  1.4km/h 0.9mph /  1.4km/h 87% 0in /  0.0mm
08:25 53.2 °F /  11.8 °C 50 °F /  10.0 °C 30.3in /  1025.0hPa Calm   0.9mph /  1.4km/h 87% 0in /  0.0mm
08:30 53.8 °F /  12.1 °C 50 °F /  10.0 °C 30.3in /  1025.0hPa Calm   0.9mph /  1.4km/h 87% 0in /  0.0mm
08:35 54.1 °F /  12.3 °C 50 °F /  10.0 °C 30.3in /  1025.0hPa Calm     86% 0in /  0.0mm
08:40 54.7 °F /  12.6 °C 51.8 °F /  11.0 °C 30.3in /  1025.0hPa Calm   0.9mph /  1.4km/h 86% 0in /  0.0mm
08:45 55.4 °F /  13.0 °C 51.8 °F /  11.0 °C 30.3in /  1025.0hPa Calm   0.9mph /  1.4km/h 86% 0in /  0.0mm
08:50 55.8 °F /  13.2 °C 51.8 °F /  11.0 °C 30.3in /  1025.0hPa Calm     86% 0in /  0.0mm
08:55 56.3 °F /  13.5 °C 53.6 °F /  12.0 °C 30.3in /  1025.0hPa Calm     86% 0in /  0.0mm
09:00 57 °F /  13.9 °C 53.6 °F /  12.0 °C 30.3in /  1025.0hPa SSE 3.6mph /  5.8km/h 3.6mph /  5.8km/h 86% 0in /  0.0mm
09:05 57.7 °F /  14.3 °C 53.6 °F /  12.0 °C 30.3in /  1025.0hPa Calm   3.6mph /  5.8km/h 84% 0in /  0.0mm
09:10 58.3 °F /  14.6 °C 53.6 °F /  12.0 °C 30.3in /  1026.0hPa Calm   3.6mph /  5.8km/h 84% 0in /  0.0mm
09:15 58.8 °F /  14.9 °C 53.6 °F /  12.0 °C 30.3in /  1026.0hPa Calm     82% 0in /  0.0mm
09:20 59.2 °F /  15.1 °C 53.6 °F /  12.0 °C 30.3in /  1026.0hPa Calm     80% 0in /  0.0mm
09:25 60.1 °F /  15.6 °C 53.6 °F /  12.0 °C 30.3in /  1026.0hPa Calm     79% 0in /  0.0mm
09:30 60.6 °F /  15.9 °C 55.4 °F /  13.0 °C 30.3in /  1026.0hPa Calm     79% 0in /  0.0mm
09:35 61.2 °F /  16.2 °C 55.4 °F /  13.0 °C 30.3in /  1026.0hPa South 1.3mph /  2.1km/h 2.9mph /  4.7km/h 78% 0in /  0.0mm
09:40 61.5 °F /  16.4 °C 53.6 °F /  12.0 °C 30.3in /  1026.0hPa Calm   2.9mph /  4.7km/h 75% 0in /  0.0mm
09:45 61.9 °F /  16.6 °C 55.4 °F /  13.0 °C 30.3in /  1026.0hPa Calm   1.3mph /  2.1km/h 75% 0in /  0.0mm
09:50 63 °F /  17.2 °C 55.4 °F /  13.0 °C 30.3in /  1026.0hPa Calm     74% 0in /  0.0mm
09:55 64.2 °F /  17.9 °C 55.4 °F /  13.0 °C 30.3in /  1025.0hPa Calm     72% 0in /  0.0mm
10:00 64.8 °F /  18.2 °C 55.4 °F /  13.0 °C 30.3in /  1025.0hPa Calm     71% 0in /  0.0mm
10:05 64.9 °F /  18.3 °C 55.4 °F /  13.0 °C 30.3in /  1025.0hPa SE 1.1mph /  1.8km/h 1.1mph /  1.8km/h 70% 0in /  0.0mm
10:10 65.1 °F /  18.4 °C 55.4 °F /  13.0 °C 30.3in /  1026.0hPa Calm   1.1mph /  1.8km/h 68% 0in /  0.0mm
10:15 65.7 °F /  18.7 °C 55.4 °F /  13.0 °C 30.3in /  1026.0hPa Calm   1.1mph /  1.8km/h 68% 0in /  0.0mm
10:20 66 °F /  18.9 °C 55.4 °F /  13.0 °C 30.3in /  1026.0hPa Calm     67% 0in /  0.0mm
10:25 66.6 °F /  19.2 °C 55.4 °F /  13.0 °C 30.3in /  1025.0hPa Calm   2mph /  3.2km/h 66% 0in /  0.0mm
10:30 67.3 °F /  19.6 °C 55.4 °F /  13.0 °C 30.3in /  1025.0hPa Calm   2mph /  3.2km/h 65% 0in /  0.0mm
10:35 66.9 °F /  19.4 °C 55.4 °F /  13.0 °C 30.3in /  1025.0hPa Calm   3.1mph /  5.0km/h 64% 0in /  0.0mm
10:40 66.9 °F /  19.4 °C 55.4 °F /  13.0 °C 30.3in /  1026.0hPa Calm   3.1mph /  5.0km/h 64% 0in /  0.0mm
10:45 67.3 °F /  19.6 °C 55.4 °F /  13.0 °C 30.3in /  1026.0hPa Calm     64% 0in /  0.0mm
10:50 68.2 °F /  20.1 °C 55.4 °F /  13.0 °C 30.3in /  1026.0hPa Calm   1.3mph /  2.1km/h 62% 0in /  0.0mm
10:55 68.7 °F /  20.4 °C 55.4 °F /  13.0 °C 30.3in /  1026.0hPa Calm   1.3mph /  2.1km/h 61% 0in /  0.0mm
11:00 69.1 °F /  20.6 °C 55.4 °F /  13.0 °C 30.3in /  1026.0hPa Calm   1.6mph /  2.6km/h 59% 0in /  0.0mm
11:05 69.8 °F /  21.0 °C 55.4 °F /  13.0 °C 30.3in /  1026.0hPa Calm   1.6mph /  2.6km/h 59% 0in /  0.0mm
11:10 70.3 °F /  21.3 °C 55.4 °F /  13.0 °C 30.3in /  1026.0hPa Calm   1.6mph /  2.6km/h 58% 0in /  0.0mm
11:15 70.7 °F /  21.5 °C 53.6 °F /  12.0 °C 30.3in /  1026.0hPa Calm     54% 0in /  0.0mm
11:20 70.3 °F /  21.3 °C 53.6 °F /  12.0 °C 30.3in /  1026.0hPa Calm     53% 0in /  0.0mm
11:25 70.9 °F /  21.6 °C 53.6 °F /  12.0 °C 30.3in /  1026.0hPa Calm     52% 0in /  0.0mm
11:30 71.1 °F /  21.7 °C 53.6 °F /  12.0 °C 30.3in /  1026.0hPa Calm     52% 0in /  0.0mm
11:35 71.2 °F /  21.8 °C 51.8 °F /  11.0 °C 30.3in /  1026.0hPa Calm     51% 0in /  0.0mm
11:40 70.5 °F /  21.4 °C 51.8 °F /  11.0 °C 30.3in /  1025.0hPa Calm     50% 0in /  0.0mm
11:45 70.7 °F /  21.5 °C 51.8 °F /  11.0 °C 30.3in /  1025.0hPa Calm     49% 0in /  0.0mm
11:50 70.7 °F /  21.5 °C 51.8 °F /  11.0 °C 30.3in /  1025.0hPa Calm   3.1mph /  5.0km/h 49% 0in /  0.0mm
11:55 71.6 °F /  22.0 °C 51.8 °F /  11.0 °C 30.3in /  1026.0hPa SE 2.9mph /  4.7km/h 3.1mph /  5.0km/h 48% 0in /  0.0mm
12:00 72 °F /  22.2 °C 51.8 °F /  11.0 °C 30.3in /  1026.0hPa Calm   2.9mph /  4.7km/h 47% 0in /  0.0mm
12:05 72.3 °F /  22.4 °C 51.8 °F /  11.0 °C 30.3in /  1026.0hPa Calm   4mph /  6.4km/h 47% 0in /  0.0mm
12:10 72.7 °F /  22.6 °C 51.8 °F /  11.0 °C 30.3in /  1026.0hPa South 2.2mph /  3.5km/h 4mph /  6.4km/h 47% 0in /  0.0mm
12:15 72.7 °F /  22.6 °C 51.8 °F /  11.0 °C 30.3in /  1026.0hPa Calm   4mph /  6.4km/h 47% 0in /  0.0mm
12:20 73.2 °F /  22.9 °C 51.8 °F /  11.0 °C 30.3in /  1026.0hPa Calm   4mph /  6.4km/h 46% 0in /  0.0mm
12:25 72.7 °F /  22.6 °C 50 °F /  10.0 °C 30.3in /  1025.0hPa Calm   2.7mph /  4.3km/h 45% 0in /  0.0mm
12:30 73 °F /  22.8 °C 50 °F /  10.0 °C 30.3in /  1025.0hPa Calm     44% 0in /  0.0mm
12:35 73.8 °F /  23.2 °C 50 °F /  10.0 °C 30.3in /  1025.0hPa WSW 1.1mph /  1.8km/h 3.8mph /  6.1km/h 43% 0in /  0.0mm
12:40 74.7 °F /  23.7 °C 51.8 °F /  11.0 °C 30.3in /  1025.0hPa Calm   3.8mph /  6.1km/h 45% 0in /  0.0mm
12:45 75.2 °F /  24.0 °C 51.8 °F /  11.0 °C 30.3in /  1025.0hPa ESE 3.8mph /  6.1km/h 5.8mph /  9.3km/h 43% 0in /  0.0mm
12:50 75 °F /  23.9 °C 50 °F /  10.0 °C 30.3in /  1025.0hPa Calm   5.8mph /  9.3km/h 41% 0in /  0.0mm
12:55 74.8 °F /  23.8 °C 50 °F /  10.0 °C 30.3in /  1025.0hPa ESE 3.4mph /  5.5km/h 4.7mph /  7.6km/h 41% 0in /  0.0mm
13:00 74.8 °F /  23.8 °C 48.2 °F /  9.0 °C 30.3in /  1025.0hPa Calm   5.6mph /  9.0km/h 40% 0in /  0.0mm
13:05 75 °F /  23.9 °C 50 °F /  10.0 °C 30.3in /  1025.0hPa Calm   5.6mph /  9.0km/h 41% 0in /  0.0mm
13:10 75 °F /  23.9 °C 48.2 °F /  9.0 °C 30.3in /  1025.0hPa Calm   4.7mph /  7.6km/h 39% 0in /  0.0mm
13:15 75.6 °F /  24.2 °C 50 °F /  10.0 °C 30.3in /  1025.0hPa Calm   4.7mph /  7.6km/h 39% 0in /  0.0mm
13:20 75 °F /  23.9 °C 48.2 °F /  9.0 °C 30.3in /  1025.0hPa Calm   3.1mph /  5.0km/h 39% 0in /  0.0mm
13:25 75 °F /  23.9 °C 48.2 °F /  9.0 °C 30.3in /  1025.0hPa SSE 1.1mph /  1.8km/h 5.8mph /  9.3km/h 38% 0in /  0.0mm
13:30 75.2 °F /  24.0 °C 46.4 °F /  8.0 °C 30.3in /  1025.0hPa Calm   5.8mph /  9.3km/h 35% 0in /  0.0mm
13:35 75.6 °F /  24.2 °C 48.2 °F /  9.0 °C 30.3in /  1025.0hPa Calm   3.4mph /  5.5km/h 36% 0in /  0.0mm
13:40 76.3 °F /  24.6 °C 48.2 °F /  9.0 °C 30.3in /  1025.0hPa Calm   2.7mph /  4.3km/h 38% 0in /  0.0mm
13:45 76.3 °F /  24.6 °C 46.4 °F /  8.0 °C 30.2in /  1024.0hPa Calm   6mph /  9.7km/h 35% 0in /  0.0mm
13:50 75.9 °F /  24.4 °C 46.4 °F /  8.0 °C 30.2in /  1024.0hPa Calm   6mph /  9.7km/h 34% 0in /  0.0mm
13:55 75.9 °F /  24.4 °C 46.4 °F /  8.0 °C 30.3in /  1025.0hPa Calm   3.6mph /  5.8km/h 34% 0in /  0.0mm
14:00 75.6 °F /  24.2 °C 46.4 °F /  8.0 °C 30.3in /  1025.0hPa West 1.3mph /  2.1km/h 2.9mph /  4.7km/h 35% 0in /  0.0mm
14:05 76.5 °F /  24.7 °C 46.4 °F /  8.0 °C 30.3in /  1025.0hPa Calm   2.9mph /  4.7km/h 35% 0in /  0.0mm
14:10 76.5 °F /  24.7 °C 46.4 °F /  8.0 °C 30.3in /  1025.0hPa NE 5.6mph /  9.0km/h 6.3mph /  10.1km/h 34% 0in /  0.0mm
14:15 75.4 °F /  24.1 °C 44.6 °F /  7.0 °C 30.3in /  1025.0hPa ENE 6mph /  9.7km/h 6.3mph /  10.1km/h 34% 0in /  0.0mm
14:20 75.7 °F /  24.3 °C 48.2 °F /  9.0 °C 30.3in /  1025.0hPa Calm   6mph /  9.7km/h 36% 0in /  0.0mm
14:25 76.3 °F /  24.6 °C 46.4 °F /  8.0 °C 30.3in /  1025.0hPa Calm   4.7mph /  7.6km/h 34% 0in /  0.0mm
14:30 75.9 °F /  24.4 °C 44.6 °F /  7.0 °C 30.3in /  1025.0hPa WNW 0.9mph /  1.4km/h 2.5mph /  4.0km/h 33% 0in /  0.0mm
14:35 76.3 °F /  24.6 °C 46.4 °F /  8.0 °C 30.3in /  1025.0hPa WNW 1.1mph /  1.8km/h 5.4mph /  8.7km/h 35% 0in /  0.0mm
14:40 76.3 °F /  24.6 °C 46.4 °F /  8.0 °C 30.3in /  1025.0hPa NNW 3.1mph /  5.0km/h 5.4mph /  8.7km/h 35% 0in /  0.0mm
14:45 77 °F /  25.0 °C 46.4 °F /  8.0 °C 30.3in /  1025.0hPa Calm   4.3mph /  6.9km/h 34% 0in /  0.0mm
14:50 76.8 °F /  24.9 °C 48.2 °F /  9.0 °C 30.3in /  1025.0hPa ESE 2.9mph /  4.7km/h 4.3mph /  6.9km/h 36% 0in /  0.0mm
14:55 76.3 °F /  24.6 °C 46.4 °F /  8.0 °C 30.3in /  1025.0hPa ESE 3.8mph /  6.1km/h 5.6mph /  9.0km/h 33% 0in /  0.0mm
15:00 76.6 °F /  24.8 °C 48.2 °F /  9.0 °C 30.3in /  1025.0hPa SE 4mph /  6.4km/h 5.6mph /  9.0km/h 36% 0in /  0.0mm
15:05 77.2 °F /  25.1 °C 46.4 °F /  8.0 °C 30.3in /  1025.0hPa Calm   5.4mph /  8.7km/h 34% 0in /  0.0mm
15:10 76.8 °F /  24.9 °C 46.4 °F /  8.0 °C 30.3in /  1025.0hPa South 3.1mph /  5.0km/h 4mph /  6.4km/h 34% 0in /  0.0mm
15:15 77 °F /  25.0 °C 46.4 °F /  8.0 °C 30.3in /  1025.0hPa NE 5.4mph /  8.7km/h 5.4mph /  8.7km/h 33% 0in /  0.0mm
15:20 76.6 °F /  24.8 °C 46.4 °F /  8.0 °C 30.3in /  1025.0hPa East 3.1mph /  5.0km/h 5.4mph /  8.7km/h 34% 0in /  0.0mm
15:25 76.6 °F /  24.8 °C 46.4 °F /  8.0 °C 30.2in /  1024.0hPa Calm   5.4mph /  8.7km/h 35% 0in /  0.0mm
15:30 76.6 °F /  24.8 °C 46.4 °F /  8.0 °C 30.2in /  1024.0hPa Calm   3.1mph /  5.0km/h 33% 0in /  0.0mm
15:35 78.1 °F /  25.6 °C 48.2 °F /  9.0 °C 30.2in /  1024.0hPa Calm   1.1mph /  1.8km/h 33% 0in /  0.0mm
15:40 78.4 °F /  25.8 °C 46.4 °F /  8.0 °C 30.2in /  1024.0hPa Calm     32% 0in /  0.0mm
15:45 77.9 °F /  25.5 °C 48.2 °F /  9.0 °C 30.2in /  1024.0hPa Calm     33% 0in /  0.0mm
15:50 77.2 °F /  25.1 °C 46.4 °F /  8.0 °C 30.2in /  1024.0hPa Calm     33% 0in /  0.0mm
15:55 77.2 °F /  25.1 °C 44.6 °F /  7.0 °C 30.2in /  1024.0hPa Calm     32% 0in /  0.0mm
16:00 77 °F /  25.0 °C 44.6 °F /  7.0 °C 30.2in /  1024.0hPa Calm     32% 0in /  0.0mm
16:05 77.5 °F /  25.3 °C 46.4 °F /  8.0 °C 30.2in /  1024.0hPa Calm     32% 0in /  0.0mm
16:10 77.5 °F /  25.3 °C 46.4 °F /  8.0 °C 30.2in /  1024.0hPa Calm     32% 0in /  0.0mm
16:15 77.4 °F /  25.2 °C 46.4 °F /  8.0 °C 30.2in /  1024.0hPa Calm     33% 0in /  0.0mm
16:20 77.5 °F /  25.3 °C 46.4 °F /  8.0 °C 30.2in /  1024.0hPa Calm     33% 0in /  0.0mm
16:25 77.7 °F /  25.4 °C 46.4 °F /  8.0 °C 30.2in /  1023.0hPa Calm     32% 0in /  0.0mm
16:30 77.4 °F /  25.2 °C 46.4 °F /  8.0 °C 30.2in /  1023.0hPa Calm     32% 0in /  0.0mm
16:35 77.9 °F /  25.5 °C 48.2 °F /  9.0 °C 30.2in /  1023.0hPa Calm     33% 0in /  0.0mm
16:40 78.8 °F /  26.0 °C 46.4 °F /  8.0 °C 30.2in /  1023.0hPa Calm     32% 0in /  0.0mm
16:45 78.6 °F /  25.9 °C 46.4 °F /  8.0 °C 30.2in /  1023.0hPa Calm     32% 0in /  0.0mm
16:50 78.4 °F /  25.8 °C 48.2 °F /  9.0 °C 30.2in /  1023.0hPa Calm     33% 0in /  0.0mm
16:55 77.7 °F /  25.4 °C 44.6 °F /  7.0 °C 30.2in /  1023.0hPa Calm     31% 0in /  0.0mm
17:00 78.1 °F /  25.6 °C 46.4 °F /  8.0 °C 30.2in /  1023.0hPa Calm     31% 0in /  0.0mm
17:05 78.3 °F /  25.7 °C 46.4 °F /  8.0 °C 30.2in /  1023.0hPa Calm     31% 0in /  0.0mm
17:10 77.9 °F /  25.5 °C 46.4 °F /  8.0 °C 30.2in /  1023.0hPa Calm     31% 0in /  0.0mm
17:15 77.5 °F /  25.3 °C 46.4 °F /  8.0 °C 30.2in /  1023.0hPa Calm     32% 0in /  0.0mm
17:20 77.2 °F /  25.1 °C 44.6 °F /  7.0 °C 30.2in /  1023.0hPa Calm     31% 0in /  0.0mm
17:25 76.6 °F /  24.8 °C 46.4 °F /  8.0 °C 30.2in /  1023.0hPa Calm     33% 0in /  0.0mm
17:30 77 °F /  25.0 °C 46.4 °F /  8.0 °C 30.2in /  1023.0hPa Calm     33% 0in /  0.0mm
17:35 76.8 °F /  24.9 °C 46.4 °F /  8.0 °C 30.2in /  1023.0hPa Calm     34% 0in /  0.0mm
17:40 77.2 °F /  25.1 °C 46.4 °F /  8.0 °C 30.2in /  1022.0hPa Calm     34% 0in /  0.0mm
17:45 76.8 °F /  24.9 °C 46.4 °F /  8.0 °C 30.2in /  1022.0hPa Calm     34% 0in /  0.0mm
17:50 76.8 °F /  24.9 °C 48.2 °F /  9.0 °C 30.2in /  1022.0hPa Calm     35% 0in /  0.0mm
17:55 77 °F /  25.0 °C 46.4 °F /  8.0 °C 30.2in /  1023.0hPa Calm     33% 0in /  0.0mm
18:00 77.2 °F /  25.1 °C 46.4 °F /  8.0 °C 30.2in /  1023.0hPa Calm     34% 0in /  0.0mm
18:05 77.2 °F /  25.1 °C 46.4 °F /  8.0 °C 30.2in /  1023.0hPa Calm     33% 0in /  0.0mm
18:10 78.1 °F /  25.6 °C 48.2 °F /  9.0 °C 30.2in /  1024.0hPa Calm     33% 0in /  0.0mm
18:15 77.7 °F /  25.4 °C 46.4 °F /  8.0 °C 30.2in /  1024.0hPa Calm     33% 0in /  0.0mm
18:20 77 °F /  25.0 °C 46.4 °F /  8.0 °C 30.2in /  1024.0hPa Calm     33% 0in /  0.0mm
18:25 76.6 °F /  24.8 °C 46.4 °F /  8.0 °C 30.2in /  1023.0hPa Calm     35% 0in /  0.0mm
18:30 76.6 °F /  24.8 °C 46.4 °F /  8.0 °C 30.2in /  1023.0hPa Calm     34% 0in /  0.0mm
18:35 77 °F /  25.0 °C 46.4 °F /  8.0 °C 30.2in /  1023.0hPa Calm     34% 0in /  0.0mm
18:40 76.8 °F /  24.9 °C 46.4 °F /  8.0 °C 30.2in /  1023.0hPa Calm     34% 0in /  0.0mm
18:45 76.6 °F /  24.8 °C 46.4 °F /  8.0 °C 30.2in /  1023.0hPa Calm     35% 0in /  0.0mm
18:50 76.3 °F /  24.6 °C 46.4 °F /  8.0 °C 30.2in /  1023.0hPa Calm     34% 0in /  0.0mm
18:55 75.7 °F /  24.3 °C 46.4 °F /  8.0 °C 30.2in /  1023.0hPa Calm     35% 0in /  0.0mm
19:00 75.6 °F /  24.2 °C 46.4 °F /  8.0 °C 30.2in /  1023.0hPa Calm     35% 0in /  0.0mm
19:05 75.4 °F /  24.1 °C 46.4 °F /  8.0 °C 30.2in /  1023.0hPa Calm     35% 0in /  0.0mm
19:10 74.7 °F /  23.7 °C 44.6 °F /  7.0 °C 30.2in /  1023.0hPa Calm     35% 0in /  0.0mm
19:15 73.8 °F /  23.2 °C 44.6 °F /  7.0 °C 30.2in /  1023.0hPa Calm     35% 0in /  0.0mm
19:20 73.4 °F /  23.0 °C 44.6 °F /  7.0 °C 30.2in /  1023.0hPa Calm     35% 0in /  0.0mm
19:25 73.6 °F /  23.1 °C 44.6 °F /  7.0 °C 30.2in /  1022.0hPa Calm     35% 0in /  0.0mm
19:30 73.4 °F /  23.0 °C 44.6 °F /  7.0 °C 30.2in /  1022.0hPa Calm     36% 0in /  0.0mm
19:35 73.4 °F /  23.0 °C 44.6 °F /  7.0 °C 30.2in /  1022.0hPa Calm     36% 0in /  0.0mm
19:40 73.4 °F /  23.0 °C 46.4 °F /  8.0 °C 30.2in /  1023.0hPa Calm     38% 0in /  0.0mm
19:45 73.2 °F /  22.9 °C 48.2 °F /  9.0 °C 30.2in /  1023.0hPa Calm     39% 0in /  0.0mm
19:50 72.7 °F /  22.6 °C 46.4 °F /  8.0 °C 30.2in /  1023.0hPa Calm     38% 0in /  0.0mm
19:55 71.8 °F /  22.1 °C 46.4 °F /  8.0 °C 30.2in /  1022.0hPa Calm     39% 0in /  0.0mm
20:00 71.1 °F /  21.7 °C 44.6 °F /  7.0 °C 30.2in /  1022.0hPa Calm     39% 0in /  0.0mm
20:05 70.5 °F /  21.4 °C 44.6 °F /  7.0 °C 30.2in /  1022.0hPa Calm     40% 0in /  0.0mm
20:10 70 °F /  21.1 °C 44.6 °F /  7.0 °C 30.2in /  1023.0hPa Calm     41% 0in /  0.0mm
20:15 69.4 °F /  20.8 °C 46.4 °F /  8.0 °C 30.2in /  1023.0hPa Calm     43% 0in /  0.0mm
20:20 68.9 °F /  20.5 °C 46.4 °F /  8.0 °C 30.2in /  1023.0hPa Calm     44% 0in /  0.0mm
20:25 68.4 °F /  20.2 °C 46.4 °F /  8.0 °C 30.2in /  1023.0hPa Calm     45% 0in /  0.0mm
20:30 67.6 °F /  19.8 °C 46.4 °F /  8.0 °C 30.2in /  1023.0hPa Calm     47% 0in /  0.0mm
20:35 67.1 °F /  19.5 °C 48.2 °F /  9.0 °C 30.2in /  1023.0hPa Calm     48% 0in /  0.0mm
20:40 66.4 °F /  19.1 °C 46.4 °F /  8.0 °C 30.2in /  1023.0hPa Calm     49% 0in /  0.0mm
20:45 65.7 °F /  18.7 °C 48.2 °F /  9.0 °C 30.2in /  1023.0hPa Calm     51% 0in /  0.0mm
20:50 64.9 °F /  18.3 °C 46.4 °F /  8.0 °C 30.2in /  1023.0hPa Calm     51% 0in /  0.0mm
20:55 64.4 °F /  18.0 °C 48.2 °F /  9.0 °C 30.2in /  1023.0hPa Calm     53% 0in /  0.0mm
21:00 63.7 °F /  17.6 °C 48.2 °F /  9.0 °C 30.2in /  1023.0hPa Calm     54% 0in /  0.0mm
21:05 62.8 °F /  17.1 °C 46.4 °F /  8.0 °C 30.2in /  1023.0hPa Calm     54% 0in /  0.0mm
21:10 62.1 °F /  16.7 °C 46.4 °F /  8.0 °C 30.2in /  1023.0hPa Calm   1.3mph /  2.1km/h 57% 0in /  0.0mm
21:15 61.3 °F /  16.3 °C 48.2 °F /  9.0 °C 30.2in /  1023.0hPa Calm   3.6mph /  5.8km/h 59% 0in /  0.0mm
21:20 61 °F /  16.1 °C 48.2 °F /  9.0 °C 30.2in /  1023.0hPa Calm   3.6mph /  5.8km/h 63% 0in /  0.0mm
21:25 61 °F /  16.1 °C 48.2 °F /  9.0 °C 30.2in /  1023.0hPa Calm   3.1mph /  5.0km/h 64% 0in /  0.0mm
21:30 61.2 °F /  16.2 °C 50 °F /  10.0 °C 30.2in /  1023.0hPa WNW 1.6mph /  2.6km/h 4.3mph /  6.9km/h 67% 0in /  0.0mm
21:35 61.5 °F /  16.4 °C 51.8 °F /  11.0 °C 30.2in /  1023.0hPa NNW 4.9mph /  7.9km/h 5.4mph /  8.7km/h 68% 0in /  0.0mm
21:40 61.9 °F /  16.6 °C 51.8 °F /  11.0 °C 30.2in /  1022.0hPa NW 2.5mph /  4.0km/h 5.4mph /  8.7km/h 68% 0in /  0.0mm
21:45 61.9 °F /  16.6 °C 51.8 °F /  11.0 °C 30.2in /  1022.0hPa NW 2.9mph /  4.7km/h 6mph /  9.7km/h 68% 0in /  0.0mm
21:50 61.9 °F /  16.6 °C 51.8 °F /  11.0 °C 30.2in /  1022.0hPa NNW 3.1mph /  5.0km/h 7.2mph /  11.6km/h 67% 0in /  0.0mm
21:55 61.9 °F /  16.6 °C 50 °F /  10.0 °C 30.2in /  1023.0hPa Calm   7.2mph /  11.6km/h 66% 0in /  0.0mm
22:00 61.7 °F /  16.5 °C 51.8 °F /  11.0 °C 30.2in /  1023.0hPa NNW 4.9mph /  7.9km/h 5.4mph /  8.7km/h 67% 0in /  0.0mm
22:05 61.5 °F /  16.4 °C 50 °F /  10.0 °C 30.2in /  1023.0hPa Calm   5.4mph /  8.7km/h 67% 0in /  0.0mm
22:10 61.2 °F /  16.2 °C 50 °F /  10.0 °C 30.2in /  1023.0hPa Calm   4.3mph /  6.9km/h 66% 0in /  0.0mm
22:15 61 °F /  16.1 °C 50 °F /  10.0 °C 30.2in /  1023.0hPa Calm   2mph /  3.2km/h 67% 0in /  0.0mm
22:20 60.6 °F /  15.9 °C 50 °F /  10.0 °C 30.2in /  1023.0hPa NW 3.8mph /  6.1km/h 4.3mph /  6.9km/h 67% 0in /  0.0mm
22:25 60.4 °F /  15.8 °C 50 °F /  10.0 °C 30.2in /  1023.0hPa Calm   4.3mph /  6.9km/h 68% 0in /  0.0mm
22:30 60.3 °F /  15.7 °C 50 °F /  10.0 °C 30.2in /  1023.0hPa North 4.3mph /  6.9km/h 4.3mph /  6.9km/h 69% 0in /  0.0mm
22:35 60.3 °F /  15.7 °C 50 °F /  10.0 °C 30.2in /  1023.0hPa NNW 6mph /  9.7km/h 6mph /  9.7km/h 69% 0in /  0.0mm
22:40 60.3 °F /  15.7 °C 50 °F /  10.0 °C 30.2in /  1023.0hPa NW 4mph /  6.4km/h 6.3mph /  10.1km/h 70% 0in /  0.0mm
22:45 60.3 °F /  15.7 °C 50 °F /  10.0 °C 30.2in /  1023.0hPa NNE 2.7mph /  4.3km/h 6.3mph /  10.1km/h 69% 0in /  0.0mm
22:50 60.1 °F /  15.6 °C 50 °F /  10.0 °C 30.2in /  1023.0hPa North 1.6mph /  2.6km/h 5.6mph /  9.0km/h 69% 0in /  0.0mm
22:55 59.9 °F /  15.5 °C 50 °F /  10.0 °C 30.2in /  1023.0hPa NNW 0.9mph /  1.4km/h 5.6mph /  9.0km/h 70% 0in /  0.0mm
23:00 59.5 °F /  15.3 °C 50 °F /  10.0 °C 30.2in /  1023.0hPa NW 3.1mph /  5.0km/h 5.6mph /  9.0km/h 70% 0in /  0.0mm
23:05 59.4 °F /  15.2 °C 50 °F /  10.0 °C 30.2in /  1023.0hPa North 3.1mph /  5.0km/h 4mph /  6.4km/h 70% 0in /  0.0mm
23:10 58.8 °F /  14.9 °C 50 °F /  10.0 °C 30.2in /  1023.0hPa Calm   3.1mph /  5.0km/h 71% 0in /  0.0mm
23:15 58.8 °F /  14.9 °C 50 °F /  10.0 °C 30.2in /  1023.0hPa Calm   2.7mph /  4.3km/h 73% 0in /  0.0mm
23:20 58.5 °F /  14.7 °C 50 °F /  10.0 °C 30.2in /  1023.0hPa Calm   2.5mph /  4.0km/h 73% 0in /  0.0mm
23:25 58.5 °F /  14.7 °C 50 °F /  10.0 °C 30.2in /  1023.0hPa Calm   6.3mph /  10.1km/h 74% 0in /  0.0mm
23:30 58.6 °F /  14.8 °C 50 °F /  10.0 °C 30.2in /  1023.0hPa NNW 3.1mph /  5.0km/h 6.3mph /  10.1km/h 74% 0in /  0.0mm
23:35 58.8 °F /  14.9 °C 51.8 °F /  11.0 °C 30.2in /  1023.0hPa Calm   4.9mph /  7.9km/h 74% 0in /  0.0mm
23:40 58.8 °F /  14.9 °C 51.8 °F /  11.0 °C 30.2in /  1023.0hPa NNW 2.7mph /  4.3km/h 4.3mph /  6.9km/h 74% 0in /  0.0mm
23:45 58.6 °F /  14.8 °C 50 °F /  10.0 °C 30.2in /  1023.0hPa NNW 3.6mph /  5.8km/h 5.4mph /  8.7km/h 73% 0in /  0.0mm
23:50 58.5 °F /  14.7 °C 50 °F /  10.0 °C 30.2in /  1023.0hPa Calm   5.4mph /  8.7km/h 74% 0in /  0.0mm
23:55 58.3 °F /  14.6 °C 50 °F /  10.0 °C 30.2in /  1023.0hPa Calm   2.5mph /  4.0km/h 74% 0in /  0.0mm
Données Historique de Météo Turbie

Mise a jour : 22/09/2019 19:00:16
Généré par Cumulus 1.9.4 (1099)